Surprise, AZ (85374)

3:16 AM MST on February 13, 2016 (GMT -0700)
Kingswood Parke | | Change Station
CLOSE
Current Station
Personal Weather Station
Location: Surprise, AZ
Elevation: 1227 ft
Nearby Weather Stations

Elev 1227 ft 33.64 °N, 112.37 °W | Updated 26 seconds ago

Clear
Clear
50.9 °F
Feels Like 50.9 °F
N
2.3
Wind Variable Wind from East
Gusts 2.3 mph

Today
High -- | Low -- °F
--% Chance of Precip.
Yesterday
High -- | Low -- °F
Precip. -- in
Pressure 30.04 in
Visibility 10.0 miles
Clouds Clear
Dew Point 34 °F
Humidity 53%
Rainfall 0.00 in
Snow Depth Not available.
7:16 AM 6:11 PM
Waxing Crescent, 29% visible
METAR KLUF 130958Z AUTO 33002KT 10SM CLR 11/01 A3006 RMK AO2 SLP173 T01080013 $
Pressure 30.04 in
Visibility 10.0 miles
Clouds Clear
Dew Point 34 °F
Humidity 53%
Rainfall 0.00 in
Snow Depth Not available.
7:16 AM 6:11 PM
Waxing Crescent, 29% visible
METAR KLUF 130958Z AUTO 33002KT 10SM CLR 11/01 A3006 RMK AO2 SLP173 T01080013 $

10-Day Weather Forecast

Almanac

Astronomy

Feb. 13, 2016 Rise Set
Actual Time
Civil Twilight
Nautical Twilight
Astronomical Twilight
Moon
Length of Visible Light
Length of Day
Tomorrow will be .
, % of the Moon is Illuminated

Today's Extremes

State Highs State Lows

Community

WunderPhotos

Upload Photos

1,892,536 photos uploaded!

WunderBlog® & News

Nearby

Air Quality

  Air Quality AQ Index Pollutant
Not available.

Snow Depth

Station Depth Elevation

Earthquake Activity

City Distance Mag. Time & Date
Minimum magnitude displayed is 2.5.

Coastal Water Temperatures

Place Temperature

Stations

Nearby Weather Stations

Station Location Temp. Windchill Dew Point Humidity Wind Precip. Elev Updated Type
                   

Watches & Warnings

There are currently no watches in effect.